Time;durP1;ratioP1;P1;durP2;ratioP2;P2;SDS_P1;SDS_P2;PMS_P1;PMS_P2;Temp;Humidity;BMP_temperature;BMP_pressure;BME280_temperature;BME280_humidity;BME280_pressure;Samples;Min_cycle;Max_cycle;Signal;HPM_P1;HPM_P2
2022/06/04 00:00:13;;;;;;;4.10;1.60;;;20.10;99.90;;;22.52;71.61;97615.97;171745;28;1200;-67
2022/06/04 00:00:21;;;;;;;3.36;1.51;;;20.10;99.90;;;22.50;71.47;97620.88;172387;28;2812;-69
2022/06/04 00:00:28;;;;;;;3.32;1.42;;;20.10;99.90;;;22.52;71.61;97614.06;171646;28;1022;-69
2022/06/04 00:00:38;;;;;;;3.33;1.40;;;20.10;99.90;;;22.56;71.39;97612.44;172443;28;1462;-68
2022/06/04 00:00:48;;;;;;;3.49;1.42;;;20.10;99.90;;;22.60;71.32;97608.09;172068;28;1555;-67
2022/06/04 00:00:57;;;;;;;3.71;1.54;;;20.10;99.90;;;22.58;71.09;97599.31;171191;28;1349;-68
2022/06/04 00:01:03;;;;;;;2.58;1.50;;;20.10;99.90;;;22.69;71.48;97614.78;171169;28;1052;-68
2022/06/04 00:01:10;;;;;;;2.53;1.50;;;20.10;99.90;;;22.73;71.14;97613.19;171615;28;1620;-67
2022/06/04 00:01:16;;;;;;;2.43;1.42;;;20.10;99.90;;;22.70;71.14;97613.66;171818;28;959;-69
2022/06/04 00:01:23;;;;;;;2.27;1.43;;;20.10;99.90;;;22.61;71.31;97620.72;171579;28;1410;-68
2022/06/04 00:01:30;;;;;;;3.18;1.50;;;20.10;99.90;;;22.59;71.07;97616.59;171894;28;962;-67
2022/06/04 00:01:36;;;;;;;3.58;1.50;;;20.10;99.90;;;22.60;70.89;97615.50;171639;28;1626;-67
2022/06/04 00:01:45;;;;;;;3.72;1.60;;;20.10;99.90;;;22.62;71.31;97616.91;171867;28;895;-67
2022/06/04 00:01:51;;;;;;;4.10;1.60;;;20.10;99.90;;;22.63;70.98;97613.06;171674;28;2861;-69
2022/06/04 00:01:57;;;;;;;3.53;1.60;;;20.10;99.90;;;22.63;71.27;97613.06;172289;28;1747;-69
2022/06/04 00:02:05;;;;;;;3.33;1.67;;;20.10;99.90;;;22.60;71.17;97615.50;171885;28;2566;-67
2022/06/04 00:02:10;;;;;;;3.07;1.60;;;20.10;99.90;;;22.61;71.52;97617.16;172465;28;1649;-68
2022/06/04 00:02:16;;;;;;;2.80;1.70;;;20.10;99.90;;;22.65;71.20;97615.53;173498;28;1160;-67
2022/06/04 00:02:22;;;;;;;2.75;1.65;;;20.10;99.90;;;22.63;71.22;97612.25;173061;28;1466;-68
2022/06/04 00:02:28;;;;;;;2.78;1.63;;;20.10;99.90;;;22.72;70.80;97610.72;172321;28;1522;-68
2022/06/04 00:02:40;;;;;;;3.03;1.53;;;20.10;99.90;;;22.77;70.47;97618.97;171869;28;827;-67
2022/06/04 00:02:48;;;;;;;3.20;1.52;;;20.10;99.90;;;22.71;70.89;97609.88;171129;28;1251;-68
2022/06/04 00:02:55;;;;;;;3.57;1.60;;;20.10;99.90;;;22.68;71.40;97613.13;171545;28;1138;-67
2022/06/04 00:03:01;;;;;;;3.83;1.57;;;20.10;99.90;;;22.73;71.49;97623.34;172621;28;1033;-68
2022/06/04 00:03:08;;;;;;;3.78;1.60;;;20.10;99.90;;;22.68;71.54;97612.28;171900;28;1272;-68
2022/06/04 00:03:14;;;;;;;3.70;1.60;;;20.10;99.90;;;22.69;71.47;97612.03;171139;28;1280;-67
2022/06/04 00:03:21;;;;;;;3.53;1.47;;;20.10;99.90;;;22.65;71.49;97612.78;172185;28;1309;-67
2022/06/04 00:03:27;;;;;;;3.32;1.54;;;20.10;99.90;;;22.66;71.36;97619.94;172389;28;1355;-67
2022/06/04 00:03:33;;;;;;;3.20;1.67;;;20.10;99.90;;;22.60;71.78;97610.84;172677;28;1090;-68
2022/06/04 00:03:40;;;;;;;3.88;1.73;;;20.10;99.90;;;22.61;72.14;97618.00;171852;28;799;-68
2022/06/04 00:03:46;;;;;;;3.80;1.70;;;20.10;99.90;;;22.60;71.66;97610.00;172579;28;1431;-68
2022/06/04 00:03:52;;;;;;;3.75;1.70;;;20.10;99.90;;;22.58;71.36;97609.47;171818;28;1022;-67
2022/06/04 00:03:58;;;;;;;3.50;1.58;;;20.00;99.90;;;22.60;71.18;97612.75;172475;28;930;-68
2022/06/04 00:04:04;;;;;;;3.00;1.48;;;20.10;99.90;;;22.55;71.70;97619.03;173067;28;1032;-67
2022/06/04 00:04:13;;;;;;;2.27;1.40;;;20.10;99.90;;;22.48;71.60;97617.59;172431;28;1270;-69
2022/06/04 00:04:19;;;;;;;2.57;1.57;;;20.10;99.90;;;22.49;71.76;97617.31;173210;28;887;-68
2022/06/04 00:04:25;;;;;;;3.03;1.52;;;20.10;99.90;;;22.45;71.74;97613.44;173040;28;1019;-68
2022/06/04 00:04:31;;;;;;;3.28;1.60;;;20.10;99.90;;;22.51;71.75;97619.81;172676;28;1221;-68
2022/06/04 00:04:37;;;;;;;3.33;1.58;;;20.00;99.90;;;22.48;71.58;97610.19;172261;28;1366;-68
2022/06/04 00:04:43;;;;;;;3.00;1.50;;;20.00;99.90;;;22.52;71.93;97614.06;173003;28;1255;-67
2022/06/04 00:04:49;;;;;;;3.40;1.50;;;20.00;99.90;;;22.55;71.74;97620.94;172484;28;819;-67
2022/06/04 00:04:55;;;;;;;3.30;1.52;;;20.10;99.90;;;22.54;71.98;97614.63;172132;28;1449;-68
2022/06/04 00:05:01;;;;;;;3.00;1.50;;;20.00;99.90;;;22.58;71.77;97615.78;171859;28;888;-68
2022/06/04 00:05:11;;;;;;;3.00;1.60;;;20.00;99.90;;;22.55;71.44;97616.28;172766;28;1010;-68
2022/06/04 00:05:26;;;;;;;2.89;1.54;;;20.10;99.90;;;22.41;71.96;97618.63;172905;28;1136;-68
2022/06/04 00:05:37;;;;;;;2.53;1.40;;;20.10;99.90;;;22.38;72.17;97618.34;172541;28;1209;-69
2022/06/04 00:05:54;;;;;;;4.43;1.40;;;20.10;99.90;;;22.34;72.29;97619.91;171818;28;1218;-67
2022/06/04 00:06:00;;;;;;;5.20;1.44;;;20.10;99.90;;;22.38;72.32;97616.38;172208;28;1202;-69
2022/06/04 00:06:06;;;;;;;6.65;1.50;;;20.10;99.90;;;22.38;72.34;97613.63;171088;28;1774;-67
2022/06/04 00:06:12;;;;;;;4.95;1.40;;;20.10;99.90;;;22.42;72.45;97623.03;172114;28;1909;-68
2022/06/04 00:06:18;;;;;;;4.83;1.40;;;20.10;99.90;;;22.43;72.60;97623.88;172555;28;839;-68
2022/06/04 00:06:24;;;;;;;4.70;1.40;;;20.10;99.90;;;22.45;72.54;97613.44;171497;28;1558;-68
2022/06/04 00:06:30;;;;;;;4.65;1.38;;;20.10;99.90;;;22.52;72.24;97613.25;172483;28;1044;-68
2022/06/04 00:06:36;;;;;;;2.73;1.40;;;20.00;99.90;;;22.55;72.08;97613.53;171668;28;1405;-68
2022/06/04 00:06:44;;;;;;;3.10;1.50;;;20.00;99.90;;;22.58;72.06;97613.03;171532;28;1471;-67
2022/06/04 00:06:49;;;;;;;3.18;1.48;;;20.00;99.90;;;22.65;71.32;97624.59;172906;28;1124;-70
2022/06/04 00:06:56;;;;;;;3.17;1.55;;;20.00;99.90;;;22.69;71.27;97622.19;172789;28;1271;-68
2022/06/04 00:07:02;;;;;;;2.80;1.40;;;20.00;99.90;;;22.65;71.02;97616.38;172512;28;985;-68
2022/06/04 00:07:09;;;;;;;2.37;1.33;;;20.00;99.90;;;22.67;70.73;97607.88;172448;28;1337;-68
2022/06/04 00:07:14;;;;;;;1.98;1.40;;;20.00;99.90;;;22.74;70.92;97611.28;171851;28;995;-67
2022/06/04 00:07:21;;;;;;;2.40;1.50;;;20.00;99.90;;;22.78;71.14;97621.47;171870;28;1313;-69
2022/06/04 00:07:26;;;;;;;2.47;1.63;;;20.00;99.90;;;22.78;70.53;97613.25;171218;28;1066;-68
2022/06/04 00:07:32;;;;;;;2.85;1.70;;;20.00;99.90;;;22.81;70.36;97612.69;171230;28;1586;-69
2022/06/04 00:07:39;;;;;;;3.22;1.77;;;20.00;99.90;;;22.87;70.47;97617.16;171636;28;1310;-68
2022/06/04 00:07:46;;;;;;;3.30;1.90;;;20.00;99.90;;;22.86;70.34;97620.16;171666;28;1330;-69
2022/06/04 00:07:54;;;;;;;3.64;1.90;;;20.00;99.90;;;22.82;69.96;97622.59;172370;28;1627;-69
2022/06/04 00:08:02;;;;;;;4.42;1.85;;;20.00;99.90;;;22.76;70.21;97614.56;171998;28;2010;-69
2022/06/04 00:08:10;;;;;;;4.20;1.81;;;20.00;99.90;;;22.72;70.33;97617.03;171815;28;1038;-67
2022/06/04 00:08:16;;;;;;;3.80;1.70;;;20.00;99.90;;;22.74;70.33;97620.34;173098;28;1697;-67
2022/06/04 00:08:23;;;;;;;3.40;1.74;;;20.00;99.90;;;22.72;70.12;97618.94;172488;28;1181;-69
2022/06/04 00:08:30;;;;;;;3.20;1.88;;;20.00;99.90;;;22.73;70.12;97615.13;173553;28;1485;-67
2022/06/04 00:08:36;;;;;;;3.48;1.88;;;20.00;99.90;;;22.73;70.43;97620.59;173770;28;1039;-68
2022/06/04 00:08:42;;;;;;;3.60;1.90;;;20.00;99.90;;;22.69;70.78;97605.72;173424;28;1712;-68
2022/06/04 00:08:48;;;;;;;3.53;1.73;;;20.00;99.90;;;22.71;70.75;97617.28;172927;28;1201;-70
2022/06/04 00:08:54;;;;;;;3.70;1.70;;;20.00;99.90;;;22.72;70.67;97628.00;171963;28;1254;-68
2022/06/04 00:09:00;;;;;;;2.95;1.52;;;20.00;99.90;;;22.71;70.81;97620.84;172534;28;903;-68
2022/06/04 00:09:08;;;;;;;2.65;1.50;;;20.00;99.90;;;22.67;70.95;97616.94;172476;28;1175;-68
2022/06/04 00:09:15;;;;;;;2.72;1.53;;;20.00;99.90;;;22.62;71.01;97610.59;171782;28;963;-68
2022/06/04 00:09:22;;;;;;;2.87;1.60;;;20.00;99.90;;;22.66;70.77;97617.19;172380;28;1193;-68
2022/06/04 00:09:28;;;;;;;4.20;1.80;;;20.00;99.90;;;22.61;70.84;97618.00;171793;28;1655;-67
2022/06/04 00:09:34;;;;;;;4.40;1.80;;;20.00;99.90;;;22.55;70.69;97620.94;171524;28;1183;-67
2022/06/04 00:15:28;;;;;;;4.75;1.88;;;20.00;99.90;;;22.47;71.21;97608.53;171858;28;1049;-70
2022/06/04 00:15:29;;;;;;;3.94;1.70;;;19.90;99.90;;;22.49;71.17;97609.09;168442;29;1180;-68
2022/06/04 00:15:35;;;;;;;4.78;1.75;;;20.00;99.90;;;22.49;70.79;97611.03;168947;29;1545;-68
2022/06/04 00:15:47;;;;;;;4.80;1.70;;;20.00;99.90;;;22.42;70.79;97609.31;169735;29;1331;-67
2022/06/04 00:15:55;;;;;;;4.44;1.59;;;20.00;99.90;;;22.41;70.92;97609.56;168491;29;1214;-68
2022/06/04 00:16:03;;;;;;;3.40;1.53;;;20.00;99.90;;;22.42;70.92;97616.72;167827;29;1138;-67
2022/06/04 00:16:10;;;;;;;3.18;1.50;;;20.00;99.90;;;22.41;70.93;97607.66;168504;29;1648;-70
2022/06/04 00:16:21;;;;;;;3.28;1.52;;;20.00;99.90;;;22.41;70.71;97609.56;170112;29;1088;-67
2022/06/04 00:16:29;;;;;;;2.59;1.50;;;20.00;99.90;;;22.39;70.54;97606.25;170236;29;1407;-68
2022/06/04 00:16:35;;;;;;;2.47;1.50;;;20.00;99.90;;;22.44;70.59;97607.13;170887;28;1535;-68
2022/06/04 00:16:42;;;;;;;2.75;1.50;;;20.00;99.90;;;22.41;70.79;97609.56;170314;28;1645;-67
2022/06/04 00:16:47;;;;;;;2.80;1.50;;;20.00;99.90;;;22.42;70.42;97600.25;171737;28;1167;-70
2022/06/04 00:16:53;;;;;;;3.10;1.60;;;20.00;99.90;;;22.39;70.68;97607.06;172243;28;1198;-67
2022/06/04 00:16:59;;;;;;;3.67;1.63;;;20.00;99.90;;;22.39;70.80;97600.75;171861;28;1369;-68
2022/06/04 00:17:05;;;;;;;4.07;1.80;;;20.00;99.90;;;22.39;71.02;97604.34;171828;28;1591;-68
2022/06/04 00:17:11;;;;;;;3.85;1.85;;;20.00;99.90;;;22.38;70.98;97604.63;171431;28;2712;-68
2022/06/04 00:17:18;;;;;;;3.88;1.80;;;19.90;99.90;;;22.41;70.75;97604.09;171618;28;1236;-67
2022/06/04 00:17:24;;;;;;;3.65;1.73;;;20.00;99.90;;;22.43;70.83;97605.47;171197;28;1046;-67
2022/06/04 00:17:30;;;;;;;3.17;1.77;;;20.00;99.90;;;22.45;70.74;97599.72;172118;28;1231;-68
2022/06/04 00:17:36;;;;;;;3.00;1.63;;;20.00;99.90;;;22.51;70.85;97615.16;172402;28;1224;-70
2022/06/04 00:17:42;;;;;;;3.08;1.60;;;19.90;99.90;;;22.49;71.01;97600.84;172598;28;1306;-68
2022/06/04 00:17:52;;;;;;;3.50;1.70;;;19.90;99.90;;;22.54;70.88;97602.84;172562;28;862;-67
2022/06/04 00:17:58;;;;;;;4.09;1.74;;;19.90;99.90;;;22.56;70.80;97612.44;172741;28;1070;-69
2022/06/04 00:18:04;;;;;;;4.87;1.70;;;19.90;99.90;;;22.60;70.79;97608.09;172692;28;1557;-68
2022/06/04 00:18:10;;;;;;;4.57;1.67;;;19.90;99.90;;;22.61;70.97;97604.28;172889;28;1414;-67
2022/06/04 00:18:18;;;;;;;5.47;1.70;;;19.90;99.90;;;22.61;71.28;97600.69;171763;28;950;-67
2022/06/04 00:18:24;;;;;;;4.57;1.70;;;19.90;99.90;;;22.58;71.21;97604.81;172627;28;1295;-68
2022/06/04 00:18:31;;;;;;;3.98;1.62;;;19.90;99.90;;;22.59;71.48;97609.19;172487;28;1263;-68
2022/06/04 00:18:40;;;;;;;3.45;1.50;;;19.90;99.90;;;22.56;71.33;97601.47;172102;28;1157;-67
2022/06/04 00:18:46;;;;;;;2.79;1.44;;;19.90;99.90;;;22.53;71.81;97604.75;171117;28;1079;-68
2022/06/04 00:18:52;;;;;;;2.43;1.40;;;19.90;99.90;;;22.48;71.82;97601.97;171985;28;2006;-68
2022/06/04 00:18:59;;;;;;;2.03;1.30;;;19.80;99.90;;;22.42;72.16;97603.84;172406;28;1112;-67
2022/06/04 00:19:05;;;;;;;2.36;1.48;;;19.80;99.90;;;22.39;72.29;97606.25;172132;28;990;-68
2022/06/04 00:19:11;;;;;;;3.50;1.50;;;19.90;99.90;;;22.37;72.46;97608.44;173188;28;898;-68
2022/06/04 00:19:17;;;;;;;3.70;1.60;;;19.90;99.90;;;22.32;72.48;97603.72;172308;28;1092;-68
2022/06/04 00:19:24;;;;;;;3.87;1.60;;;19.80;99.90;;;22.34;72.92;97603.44;172454;28;1310;-67
2022/06/04 00:19:30;;;;;;;4.16;1.60;;;19.80;99.90;;;22.33;72.70;97610.84;172029;28;1242;-68
2022/06/04 00:19:37;;;;;;;4.07;1.50;;;19.80;99.90;;;22.27;72.84;97600.94;171574;28;1512;-67
2022/06/04 00:19:43;;;;;;;3.77;1.50;;;19.80;99.90;;;22.20;73.20;97603.06;171684;28;1247;-68
2022/06/04 00:19:50;;;;;;;4.03;1.70;;;19.80;99.90;;;22.15;73.23;97604.91;172474;28;1347;-67
2022/06/04 00:19:56;;;;;;;4.22;1.74;;;19.80;99.90;;;22.11;73.44;97599.13;172872;28;1111;-68
2022/06/04 00:20:04;;;;;;;4.43;1.90;;;19.70;99.90;;;22.10;73.49;97602.94;172034;28;1503;-67
2022/06/04 00:20:12;;;;;;;4.43;2.00;;;19.70;99.90;;;22.16;73.19;97601.09;172515;28;2108;-68
2022/06/04 00:20:18;;;;;;;3.58;1.88;;;19.70;99.90;;;22.18;73.00;97604.38;172419;28;1084;-67
2022/06/04 00:20:24;;;;;;;3.53;1.87;;;19.70;99.90;;;22.15;73.24;97604.91;172640;28;1464;-70
2022/06/04 00:20:30;;;;;;;3.17;1.63;;;19.70;99.90;;;22.15;73.40;97602.16;172405;28;1487;-69
2022/06/04 00:20:36;;;;;;;3.65;1.60;;;19.70;99.90;;;22.13;73.45;97601.59;171921;28;2147;-68
2022/06/04 00:20:43;;;;;;;3.60;1.63;;;19.70;99.90;;;22.09;73.59;97603.19;171817;28;1108;-67
2022/06/04 00:20:51;;;;;;;3.82;1.72;;;19.70;99.90;;;22.04;73.67;97598.47;171471;28;1267;-68
2022/06/04 00:20:58;;;;;;;3.34;1.66;;;19.70;99.90;;;22.00;74.11;97603.66;171753;28;1061;-68
2022/06/04 00:21:04;;;;;;;3.10;1.80;;;19.60;99.90;;;21.97;74.46;97603.31;171590;28;1542;-69
2022/06/04 00:21:12;;;;;;;3.77;1.90;;;19.60;99.90;;;21.97;74.30;97604.16;173189;28;1298;-67
2022/06/04 00:21:18;;;;;;;4.33;1.93;;;19.60;99.90;;;21.90;74.44;97598.03;171578;28;1065;-68
2022/06/04 00:21:25;;;;;;;4.18;1.90;;;19.60;99.90;;;21.89;74.73;97601.84;172387;28;1346;-68
2022/06/04 00:21:31;;;;;;;4.37;1.73;;;19.60;99.90;;;21.90;74.73;97599.94;171719;28;1002;-68
2022/06/04 00:21:38;;;;;;;4.38;1.65;;;19.60;99.90;;;21.94;74.91;97612.91;171764;28;1209;-68
2022/06/04 00:21:44;;;;;;;3.93;1.50;;;19.60;99.90;;;21.94;74.69;97601.94;172015;28;1363;-68
2022/06/04 00:21:50;;;;;;;3.67;1.35;;;19.60;99.90;;;21.99;74.58;97602.00;172427;28;832;-68
2022/06/04 00:21:56;;;;;;;3.80;1.40;;;19.50;99.90;;;21.96;74.64;97602.53;172425;28;1170;-68
2022/06/04 00:22:04;;;;;;;3.13;1.38;;;19.50;99.90;;;21.98;74.30;97597.59;173128;28;1037;-70
2022/06/04 00:22:11;;;;;;;2.58;1.45;;;19.50;99.90;;;22.04;74.00;97604.78;171079;28;2625;-68
2022/06/04 00:22:18;;;;;;;2.37;1.50;;;19.50;99.90;;;22.08;74.12;97602.38;171867;28;934;-69
2022/06/04 00:22:24;;;;;;;3.10;1.60;;;19.50;99.90;;;22.07;74.12;97602.63;172118;28;1476;-69
2022/06/04 00:22:30;;;;;;;3.67;1.77;;;19.60;99.90;;;22.08;73.88;97598.78;172559;28;942;-69
2022/06/04 00:22:35;;;;;;;3.80;1.80;;;19.60;99.90;;;22.11;74.26;97604.59;171353;28;1566;-68
2022/06/04 00:22:41;;;;;;;3.78;1.80;;;19.50;99.90;;;22.13;74.11;97602.41;171408;28;1685;-68
2022/06/04 00:22:48;;;;;;;3.78;1.77;;;19.50;99.90;;;22.13;74.14;97607.91;171728;28;1123;-68
2022/06/04 00:23:04;;;;;;;3.03;1.70;;;19.50;99.90;;;22.11;73.90;97609.25;172027;28;1611;-68
2022/06/04 00:23:11;;;;;;;2.96;1.59;;;19.50;99.90;;;22.08;74.07;97598.78;173169;28;1211;-67
2022/06/04 00:23:19;;;;;;;3.00;1.60;;;19.50;99.90;;;22.10;73.71;97605.69;172358;28;1212;-67
2022/06/04 00:23:26;;;;;;;2.95;1.60;;;19.50;99.90;;;22.12;73.75;97609.00;171556;28;1513;-68
2022/06/04 00:23:32;;;;;;;2.53;1.60;;;19.50;99.90;;;22.14;73.36;97601.34;171199;28;939;-68
2022/06/04 00:23:39;;;;;;;2.97;1.70;;;19.50;99.90;;;22.15;72.99;97600.25;171683;28;1047;-68
2022/06/04 00:23:45;;;;;;;3.26;1.78;;;19.50;99.90;;;22.21;73.02;97606.63;171033;28;1525;-68
2022/06/04 00:23:51;;;;;;;3.15;1.70;;;19.50;99.90;;;22.25;72.85;97602.28;172522;28;875;-69
2022/06/04 00:23:57;;;;;;;3.22;1.70;;;19.50;99.90;;;22.32;72.18;97611.13;172856;28;1185;-68
2022/06/04 00:24:03;;;;;;;2.97;1.58;;;19.50;99.90;;;22.33;72.16;97612.78;172570;28;894;-68
2022/06/04 00:24:09;;;;;;;2.60;1.37;;;19.50;99.90;;;22.33;71.73;97615.53;172181;28;1337;-68
2022/06/04 00:24:15;;;;;;;3.50;1.38;;;19.50;99.90;;;22.30;71.50;97613.28;172527;28;819;-68
2022/06/04 00:24:21;;;;;;;4.05;1.40;;;19.50;99.90;;;22.26;71.90;97602.03;172424;28;910;-68
2022/06/04 00:24:27;;;;;;;4.22;1.42;;;19.50;99.90;;;22.28;71.64;97604.50;172456;28;1238;-67
2022/06/04 00:24:32;;;;;;;4.25;1.48;;;19.50;99.90;;;22.29;71.52;97606.16;172310;28;1232;-69
2022/06/04 00:24:43;;;;;;;4.25;1.50;;;19.50;99.90;;;22.27;71.76;97609.16;171968;28;1453;-71
2022/06/04 00:24:48;;;;;;;3.10;1.34;;;19.50;99.90;;;22.30;72.13;97613.28;172321;28;1415;-67
2022/06/04 00:24:54;;;;;;;2.63;1.40;;;19.50;99.90;;;22.30;72.16;97603.16;171816;28;1529;-67
2022/06/04 00:25:00;;;;;;;2.25;1.27;;;19.60;99.90;;;22.25;71.96;97605.84;172009;28;1187;-68
2022/06/04 00:25:10;;;;;;;2.38;1.40;;;19.50;99.90;;;22.22;71.80;97603.63;172376;28;974;-68
2022/06/04 00:25:16;;;;;;;2.19;1.42;;;19.60;99.90;;;22.16;72.15;97603.81;171514;28;1266;-67
2022/06/04 00:25:22;;;;;;;2.42;1.40;;;19.60;99.90;;;22.15;72.06;97608.47;171815;28;995;-68
2022/06/04 00:25:29;;;;;;;2.87;1.50;;;19.60;99.90;;;22.18;72.26;97604.38;171623;28;1380;-68
2022/06/04 00:25:39;;;;;;;2.90;1.50;;;19.60;99.90;;;22.15;71.98;97613.13;171852;28;1022;-68
2022/06/04 00:25:54;;;;;;;2.66;1.40;;;19.60;99.90;;;22.20;72.02;97604.97;171630;28;1479;-68
2022/06/04 00:26:04;;;;;;;2.33;1.38;;;19.60;99.90;;;22.21;71.89;97610.19;171664;28;1224;-68
2022/06/04 00:26:13;;;;;;;2.61;1.45;;;19.60;99.90;;;22.27;71.57;97613.81;171309;28;1312;-68
2022/06/04 00:26:20;;;;;;;2.90;1.54;;;19.60;99.90;;;22.27;71.47;97609.16;171740;28;1569;-68
2022/06/04 00:26:26;;;;;;;3.20;1.60;;;19.60;99.90;;;22.25;71.24;97608.59;172008;28;1379;-67
2022/06/04 00:26:32;;;;;;;2.78;1.60;;;19.60;99.90;;;22.26;71.39;97612.16;171841;28;906;-68
2022/06/04 00:26:38;;;;;;;2.78;1.55;;;19.60;99.90;;;22.28;71.54;97610.00;172909;28;1249;-68
2022/06/04 00:26:44;;;;;;;3.28;1.50;;;19.60;99.90;;;22.28;71.54;97608.06;173141;28;809;-68
2022/06/04 00:26:50;;;;;;;2.90;1.50;;;19.60;99.90;;;22.32;71.57;97609.22;172754;28;1590;-68
2022/06/04 00:26:56;;;;;;;3.17;1.55;;;19.60;99.90;;;22.35;71.96;97613.34;173031;28;897;-67
2022/06/04 00:27:02;;;;;;;4.13;1.65;;;19.60;99.90;;;22.33;71.77;97613.59;172752;28;1389;-68
2022/06/04 00:27:18;;;;;;;4.50;1.63;;;19.60;99.90;;;22.40;71.53;97602.41;172506;28;1033;-67
2022/06/04 00:27:24;;;;;;;4.22;1.70;;;19.60;99.90;;;22.42;71.35;97603.84;172385;28;1651;-68
2022/06/04 00:27:30;;;;;;;4.25;1.58;;;19.60;99.90;;;22.44;71.48;97606.28;171457;28;1026;-68
2022/06/04 00:27:36;;;;;;;2.80;1.53;;;19.60;99.90;;;22.39;71.38;97604.34;171133;28;1053;-67
2022/06/04 00:27:42;;;;;;;3.15;1.70;;;19.60;99.90;;;22.44;71.46;97606.28;171301;28;1852;-67
2022/06/04 00:27:48;;;;;;;3.03;1.67;;;19.60;99.90;;;22.40;71.79;97603.25;171700;28;1227;-67
2022/06/04 00:28:03;;;;;;;2.50;1.55;;;19.60;99.90;;;22.44;71.76;97609.03;172398;28;1454;-67
2022/06/04 00:28:10;;;;;;;2.53;1.59;;;19.60;99.90;;;22.38;72.27;97612.84;171868;28;1982;-67
2022/06/04 00:28:20;;;;;;;2.43;1.60;;;19.60;99.90;;;22.37;71.96;97614.75;172396;28;1070;-67
2022/06/04 00:28:28;;;;;;;2.60;1.69;;;19.60;99.90;;;22.37;72.16;97609.28;171111;28;1543;-68
2022/06/04 00:28:35;;;;;;;2.53;1.63;;;19.60;99.90;;;22.35;72.38;97605.13;171960;28;1181;-67
2022/06/04 00:28:41;;;;;;;2.94;1.70;;;19.60;99.90;;;22.34;72.31;97606.19;173148;28;1617;-67
2022/06/04 00:28:48;;;;;;;3.13;1.63;;;19.60;99.90;;;22.32;72.57;97608.38;172558;28;1224;-68
2022/06/04 00:28:54;;;;;;;2.90;1.60;;;19.60;99.90;;;22.31;72.60;97609.47;172345;28;1508;-69
2022/06/04 00:29:00;;;;;;;2.83;1.70;;;19.60;99.90;;;22.25;72.84;97599.53;171336;28;1524;-68
2022/06/04 00:29:07;;;;;;;3.10;1.88;;;19.50;99.90;;;22.27;72.81;97611.09;170385;28;1347;-67
2022/06/04 00:29:13;;;;;;;2.60;1.70;;;19.60;99.90;;;22.27;72.61;97611.91;170562;28;947;-69
2022/06/04 00:29:19;;;;;;;2.23;1.67;;;19.60;99.90;;;22.25;72.77;97611.31;171736;28;1499;-67
2022/06/04 00:29:25;;;;;;;2.47;1.60;;;19.60;99.90;;;22.25;72.90;97607.75;171723;28;980;-69
2022/06/04 00:29:32;;;;;;;2.80;1.60;;;19.60;99.90;;;22.19;72.89;97609.63;172275;28;1150;-68
2022/06/04 00:29:38;;;;;;;2.60;1.46;;;19.60;99.90;;;22.18;73.20;97607.13;172454;28;1082;-68
2022/06/04 00:29:45;;;;;;;3.53;1.65;;;19.60;99.90;;;22.20;73.35;97613.19;170953;28;1218;-68
2022/06/04 00:29:51;;;;;;;4.44;1.86;;;19.50;99.90;;;22.15;73.33;97607.66;170956;28;2350;-68
2022/06/04 00:29:57;;;;;;;5.00;1.80;;;19.50;99.90;;;22.17;73.19;97603.56;171297;28;1431;-68
2022/06/04 00:30:05;;;;;;;5.35;1.80;;;19.50;99.90;;;22.15;73.17;97604.91;171039;28;1695;-68
2022/06/04 00:30:11;;;;;;;5.43;1.83;;;19.50;99.90;;;22.09;73.45;97606.75;171669;28;1340;-67
2022/06/04 00:30:18;;;;;;;4.60;1.70;;;19.50;99.90;;;22.07;73.77;97603.47;171206;28;880;-68
2022/06/04 00:30:23;;;;;;;4.40;1.70;;;19.50;99.90;;;22.09;73.59;97606.75;172334;28;1473;-68
2022/06/04 00:30:31;;;;;;;3.43;1.70;;;19.50;99.90;;;22.07;73.75;97608.94;172519;28;911;-67
2022/06/04 00:30:38;;;;;;;3.30;1.68;;;19.50;99.90;;;22.07;73.54;97603.47;173083;28;1059;-67
2022/06/04 00:30:45;;;;;;;3.50;1.63;;;19.50;99.90;;;22.02;73.76;97604.22;173109;28;1044;-70
2022/06/04 00:30:53;;;;;;;3.84;1.70;;;19.50;99.90;;;22.05;73.91;97605.63;171551;28;1018;-67
2022/06/04 00:30:59;;;;;;;3.87;1.72;;;19.50;99.90;;;22.00;73.73;97603.66;171558;28;1434;-68
2022/06/04 00:31:06;;;;;;;3.83;1.70;;;19.50;99.90;;;22.04;73.54;97604.78;171969;28;1850;-68
2022/06/04 00:31:15;;;;;;;3.67;1.73;;;19.50;99.90;;;22.07;73.46;97611.69;171791;28;1402;-68
2022/06/04 00:31:21;;;;;;;3.84;1.84;;;19.50;99.90;;;22.07;73.72;97610.88;171209;28;1043;-67
2022/06/04 00:31:27;;;;;;;3.43;1.83;;;19.40;99.90;;;22.02;73.42;97606.97;171394;28;1086;-68
2022/06/04 00:31:33;;;;;;;4.13;1.90;;;19.40;99.90;;;22.06;73.53;97609.19;171771;28;1318;-67
2022/06/04 00:31:39;;;;;;;4.38;1.92;;;19.40;99.90;;;22.08;73.26;97607.00;171680;28;1122;-68
2022/06/04 00:31:45;;;;;;;4.20;1.77;;;19.40;99.90;;;22.12;72.96;97602.69;171788;28;970;-68
2022/06/04 00:31:51;;;;;;;3.55;1.70;;;19.40;99.90;;;22.16;72.88;97603.81;171728;28;1360;-68
2022/06/04 00:31:57;;;;;;;3.43;1.60;;;19.40;99.90;;;22.16;72.48;97595.59;171780;28;1339;-67
2022/06/04 00:32:04;;;;;;;3.67;1.52;;;19.40;99.90;;;22.22;72.31;97606.38;171796;28;935;-67
2022/06/04 00:32:11;;;;;;;3.23;1.40;;;19.40;99.90;;;22.25;71.96;97603.09;171077;28;1584;-67
2022/06/04 00:32:18;;;;;;;3.13;1.40;;;19.40;99.90;;;22.30;71.69;97602.31;171716;28;1477;-67
2022/06/04 00:32:24;;;;;;;3.40;1.30;;;19.40;99.90;;;22.30;71.89;97605.06;171735;28;1066;-67
2022/06/04 00:32:30;;;;;;;2.90;1.40;;;19.40;99.90;;;22.29;71.73;97596.00;171129;28;1014;-68
2022/06/04 00:32:37;;;;;;;2.50;1.40;;;19.40;99.90;;;22.35;71.91;97608.69;171029;28;1343;-67
2022/06/04 00:32:43;;;;;;;3.60;1.47;;;19.40;99.90;;;22.38;71.79;97604.63;171879;28;942;-68
2022/06/04 00:32:49;;;;;;;4.43;1.52;;;19.40;99.90;;;22.37;71.90;97608.44;171562;28;1351;-67
2022/06/04 00:32:56;;;;;;;4.20;1.50;;;19.40;99.90;;;22.35;71.81;97605.13;170351;28;1345;-69
2022/06/04 00:33:02;;;;;;;6.60;1.63;;;19.40;99.90;;;22.33;71.85;97610.06;170955;28;1042;-67
2022/06/04 00:33:09;;;;;;;7.22;1.66;;;19.40;99.90;;;22.32;71.97;97605.66;170491;29;900;-68
2022/06/04 00:33:16;;;;;;;6.30;1.70;;;19.40;99.90;;;22.28;71.92;97599.03;171325;28;2008;-68
2022/06/04 00:33:22;;;;;;;5.82;1.76;;;19.40;99.90;;;22.27;72.11;97597.38;170494;29;979;-67
2022/06/04 00:33:29;;;;;;;5.30;1.70;;;19.40;99.90;;;22.29;72.18;97606.97;171460;28;1334;-67
2022/06/04 00:33:35;;;;;;;3.03;1.50;;;19.40;99.90;;;22.29;72.47;97596.00;171869;28;1176;-68
2022/06/04 00:33:41;;;;;;;2.33;1.40;;;19.40;99.90;;;22.34;72.04;97606.19;171944;28;1404;-69
2022/06/04 00:33:47;;;;;;;2.20;1.27;;;19.40;99.90;;;22.29;72.20;97597.91;172528;28;824;-68
2022/06/04 00:33:53;;;;;;;2.80;1.33;;;19.40;99.90;;;22.28;71.99;97602.56;172440;28;1109;-67
2022/06/04 00:34:00;;;;;;;2.93;1.47;;;19.40;99.90;;;22.19;72.25;97595.06;171061;28;1296;-67
2022/06/04 00:34:06;;;;;;;3.87;1.70;;;19.40;99.90;;;22.28;72.23;97599.81;171277;28;1396;-67
2022/06/04 00:34:15;;;;;;;3.97;1.80;;;19.40;99.90;;;22.20;72.59;97597.56;171153;28;892;-68
2022/06/04 00:34:21;;;;;;;3.72;1.83;;;19.40;99.90;;;22.21;72.36;97598.41;171257;28;1348;-67
2022/06/04 00:34:28;;;;;;;3.78;1.90;;;19.40;99.90;;;22.22;72.16;97600.06;172332;28;1259;-69
2022/06/04 00:34:34;;;;;;;3.22;1.74;;;19.40;99.90;;;22.23;72.02;97593.47;172034;28;1126;-69
2022/06/04 00:34:40;;;;;;;2.65;1.65;;;19.40;99.90;;;22.20;72.33;97597.56;172512;28;911;-69
2022/06/04 00:34:46;;;;;;;2.57;1.57;;;19.40;99.90;;;22.25;72.43;97600.34;171586;28;1163;-68
2022/06/04 00:34:52;;;;;;;2.55;1.48;;;19.40;99.90;;;22.26;72.33;97602.03;171822;28;1019;-68
2022/06/04 00:35:05;;;;;;;2.05;1.25;;;19.40;99.90;;;22.32;71.85;97600.16;172397;28;1202;-68
2022/06/04 00:35:12;;;;;;;3.08;1.52;;;19.40;99.90;;;22.25;71.53;97589.38;172267;28;1425;-69
2022/06/04 00:35:19;;;;;;;3.50;1.50;;;19.40;99.90;;;22.20;71.50;97591.25;171728;28;1233;-68
2022/06/04 00:35:26;;;;;;;4.24;1.64;;;19.40;99.90;;;22.17;71.50;97597.25;171743;28;959;-70
2022/06/04 00:35:34;;;;;;;4.12;1.72;;;19.40;99.90;;;22.14;71.58;97598.59;171097;28;1312;-68
2022/06/04 00:35:40;;;;;;;3.40;1.60;;;19.40;99.90;;;22.10;71.67;97597.47;171450;28;1200;-69
2022/06/04 00:35:52;;;;;;;3.27;1.60;;;19.40;99.90;;;22.20;71.44;97594.00;171062;28;1679;-69